sensor_id;sensor_type;location;lat;lon;timestamp;P1;durP1;ratioP1;P2;durP2;ratioP2
69912;SDS011;57198;52.082;5.108;2022-08-01T00:00:17;7.32;;;5.03;;
69912;SDS011;57198;52.082;5.108;2022-08-01T00:02:45;6.57;;;5.37;;
69912;SDS011;57198;52.082;5.108;2022-08-01T00:05:12;6.63;;;4.85;;
69912;SDS011;57198;52.082;5.108;2022-08-01T00:07:39;8.07;;;5.00;;
69912;SDS011;57198;52.082;5.108;2022-08-01T00:10:07;5.97;;;4.35;;
69912;SDS011;57198;52.082;5.108;2022-08-01T00:12:35;9.02;;;4.80;;
69912;SDS011;57198;52.082;5.108;2022-08-01T00:15:06;9.27;;;5.20;;
69912;SDS011;57198;52.082;5.108;2022-08-01T00:17:34;9.25;;;5.50;;
69912;SDS011;57198;52.082;5.108;2022-08-01T00:20:02;7.45;;;5.38;;
69912;SDS011;57198;52.082;5.108;2022-08-01T00:22:33;8.85;;;5.72;;
69912;SDS011;57198;52.082;5.108;2022-08-01T00:25:01;11.27;;;6.43;;
69912;SDS011;57198;52.082;5.108;2022-08-01T00:27:28;8.70;;;6.03;;
69912;SDS011;57198;52.082;5.108;2022-08-01T00:29:56;10.15;;;7.25;;
69912;SDS011;57198;52.082;5.108;2022-08-01T00:32:39;12.82;;;6.95;;
69912;SDS011;57198;52.082;5.108;2022-08-01T00:35:06;11.93;;;6.45;;
69912;SDS011;57198;52.082;5.108;2022-08-01T00:37:34;11.60;;;6.72;;
69912;SDS011;57198;52.082;5.108;2022-08-01T00:40:01;13.13;;;7.77;;
69912;SDS011;57198;52.082;5.108;2022-08-01T00:42:29;10.98;;;6.32;;
69912;SDS011;57198;52.082;5.108;2022-08-01T00:44:56;8.95;;;6.07;;
69912;SDS011;57198;52.082;5.108;2022-08-01T00:47:23;9.85;;;6.50;;
69912;SDS011;57198;52.082;5.108;2022-08-01T00:49:51;10.35;;;6.13;;
69912;SDS011;57198;52.082;5.108;2022-08-01T00:52:18;10.00;;;5.93;;
69912;SDS011;57198;52.082;5.108;2022-08-01T00:54:46;11.10;;;6.50;;
69912;SDS011;57198;52.082;5.108;2022-08-01T00:57:13;10.38;;;7.40;;
69912;SDS011;57198;52.082;5.108;2022-08-01T00:59:48;10.90;;;7.03;;
69912;SDS011;57198;52.082;5.108;2022-08-01T01:02:15;9.57;;;6.55;;
69912;SDS011;57198;52.082;5.108;2022-08-01T01:04:44;11.47;;;7.17;;
69912;SDS011;57198;52.082;5.108;2022-08-01T01:09:58;11.63;;;7.00;;
69912;SDS011;57198;52.082;5.108;2022-08-01T01:12:29;13.00;;;7.72;;
69912;SDS011;57198;52.082;5.108;2022-08-01T01:15:12;11.15;;;7.47;;
69912;SDS011;57198;52.082;5.108;2022-08-01T01:17:45;13.13;;;8.00;;
69912;SDS011;57198;52.082;5.108;2022-08-01T01:20:17;14.25;;;7.93;;
69912;SDS011;57198;52.082;5.108;2022-08-01T01:30:19;14.53;;;8.40;;
69912;SDS011;57198;52.082;5.108;2022-08-01T01:32:48;19.77;;;9.20;;
69912;SDS011;57198;52.082;5.108;2022-08-01T01:35:21;13.07;;;7.93;;
69912;SDS011;57198;52.082;5.108;2022-08-01T01:37:51;13.95;;;8.85;;
69912;SDS011;57198;52.082;5.108;2022-08-01T01:40:20;17.02;;;9.20;;
69912;SDS011;57198;52.082;5.108;2022-08-01T01:42:48;15.07;;;8.93;;
69912;SDS011;57198;52.082;5.108;2022-08-01T01:45:16;15.02;;;8.30;;
69912;SDS011;57198;52.082;5.108;2022-08-01T01:47:44;14.52;;;9.15;;
69912;SDS011;57198;52.082;5.108;2022-08-01T01:50:12;15.82;;;8.52;;
69912;SDS011;57198;52.082;5.108;2022-08-01T01:52:41;15.70;;;8.05;;
69912;SDS011;57198;52.082;5.108;2022-08-01T01:55:09;14.07;;;8.20;;
69912;SDS011;57198;52.082;5.108;2022-08-01T01:57:37;16.70;;;8.48;;
69912;SDS011;57198;52.082;5.108;2022-08-01T02:00:06;12.65;;;7.38;;
69912;SDS011;57198;52.082;5.108;2022-08-01T02:02:36;11.40;;;7.25;;
69912;SDS011;57198;52.082;5.108;2022-08-01T02:05:04;10.40;;;6.40;;
69912;SDS011;57198;52.082;5.108;2022-08-01T02:07:32;9.77;;;6.20;;
69912;SDS011;57198;52.082;5.108;2022-08-01T02:09:59;9.90;;;6.30;;
69912;SDS011;57198;52.082;5.108;2022-08-01T02:12:27;11.13;;;5.90;;
69912;SDS011;57198;52.082;5.108;2022-08-01T02:14:55;9.75;;;5.45;;
69912;SDS011;57198;52.082;5.108;2022-08-01T02:17:24;8.88;;;5.18;;
69912;SDS011;57198;52.082;5.108;2022-08-01T02:19:52;7.53;;;5.13;;
69912;SDS011;57198;52.082;5.108;2022-08-01T02:22:31;6.30;;;5.03;;
69912;SDS011;57198;52.082;5.108;2022-08-01T02:25:00;6.70;;;5.07;;
69912;SDS011;57198;52.082;5.108;2022-08-01T02:27:42;6.68;;;4.70;;
69912;SDS011;57198;52.082;5.108;2022-08-01T02:30:12;7.28;;;4.35;;
69912;SDS011;57198;52.082;5.108;2022-08-01T02:32:47;8.43;;;5.37;;
69912;SDS011;57198;52.082;5.108;2022-08-01T02:35:20;6.90;;;4.75;;
69912;SDS011;57198;52.082;5.108;2022-08-01T02:37:50;9.32;;;4.80;;
69912;SDS011;57198;52.082;5.108;2022-08-01T02:40:18;7.15;;;5.38;;
69912;SDS011;57198;52.082;5.108;2022-08-01T02:42:47;8.07;;;5.65;;
69912;SDS011;57198;52.082;5.108;2022-08-01T02:45:20;6.87;;;5.27;;
69912;SDS011;57198;52.082;5.108;2022-08-01T02:47:49;9.48;;;5.40;;
69912;SDS011;57198;52.082;5.108;2022-08-01T02:50:16;8.38;;;5.82;;
69912;SDS011;57198;52.082;5.108;2022-08-01T02:52:46;11.27;;;7.45;;
69912;SDS011;57198;52.082;5.108;2022-08-01T02:55:14;9.00;;;7.28;;
69912;SDS011;57198;52.082;5.108;2022-08-01T02:57:42;13.03;;;9.20;;
69912;SDS011;57198;52.082;5.108;2022-08-01T03:00:17;10.25;;;8.77;;
69912;SDS011;57198;52.082;5.108;2022-08-01T03:02:47;11.40;;;8.20;;
69912;SDS011;57198;52.082;5.108;2022-08-01T03:05:16;11.82;;;9.02;;
69912;SDS011;57198;52.082;5.108;2022-08-01T03:07:44;11.50;;;8.77;;
69912;SDS011;57198;52.082;5.108;2022-08-01T03:10:14;11.53;;;8.57;;
69912;SDS011;57198;52.082;5.108;2022-08-01T03:12:42;11.02;;;8.32;;
69912;SDS011;57198;52.082;5.108;2022-08-01T03:15:13;9.07;;;6.55;;
69912;SDS011;57198;52.082;5.108;2022-08-01T03:17:41;8.98;;;7.13;;
69912;SDS011;57198;52.082;5.108;2022-08-01T03:20:11;10.70;;;6.72;;
69912;SDS011;57198;52.082;5.108;2022-08-01T03:22:38;8.37;;;6.93;;
69912;SDS011;57198;52.082;5.108;2022-08-01T03:25:06;11.27;;;5.88;;
69912;SDS011;57198;52.082;5.108;2022-08-01T03:27:34;6.85;;;5.18;;
69912;SDS011;57198;52.082;5.108;2022-08-01T03:30:04;7.47;;;5.55;;
69912;SDS011;57198;52.082;5.108;2022-08-01T03:32:31;6.63;;;5.40;;
69912;SDS011;57198;52.082;5.108;2022-08-01T03:34:59;6.53;;;5.30;;
69912;SDS011;57198;52.082;5.108;2022-08-01T03:37:27;5.97;;;4.75;;
69912;SDS011;57198;52.082;5.108;2022-08-01T03:40:00;5.35;;;4.70;;
69912;SDS011;57198;52.082;5.108;2022-08-01T03:42:48;6.45;;;5.22;;
69912;SDS011;57198;52.082;5.108;2022-08-01T03:45:18;7.53;;;5.57;;
69912;SDS011;57198;52.082;5.108;2022-08-01T03:47:46;7.83;;;4.97;;
69912;SDS011;57198;52.082;5.108;2022-08-01T03:50:15;8.38;;;5.80;;
69912;SDS011;57198;52.082;5.108;2022-08-01T03:52:44;5.78;;;5.07;;
69912;SDS011;57198;52.082;5.108;2022-08-01T03:55:13;6.53;;;5.35;;
69912;SDS011;57198;52.082;5.108;2022-08-01T03:57:43;5.55;;;5.03;;
69912;SDS011;57198;52.082;5.108;2022-08-01T04:00:11;10.07;;;5.33;;
69912;SDS011;57198;52.082;5.108;2022-08-01T04:02:38;8.90;;;5.50;;
69912;SDS011;57198;52.082;5.108;2022-08-01T04:05:06;4.70;;;4.25;;
69912;SDS011;57198;52.082;5.108;2022-08-01T04:07:33;9.02;;;4.97;;
69912;SDS011;57198;52.082;5.108;2022-08-01T04:10:05;7.72;;;5.60;;
69912;SDS011;57198;52.082;5.108;2022-08-01T04:12:33;8.00;;;5.23;;
69912;SDS011;57198;52.082;5.108;2022-08-01T04:15:01;8.93;;;5.55;;
69912;SDS011;57198;52.082;5.108;2022-08-01T04:17:28;7.10;;;5.25;;
69912;SDS011;57198;52.082;5.108;2022-08-01T04:19:55;8.38;;;5.50;;
69912;SDS011;57198;52.082;5.108;2022-08-01T04:22:23;5.68;;;4.60;;
69912;SDS011;57198;52.082;5.108;2022-08-01T04:24:51;8.53;;;5.10;;
69912;SDS011;57198;52.082;5.108;2022-08-01T04:27:26;6.75;;;4.90;;
69912;SDS011;57198;52.082;5.108;2022-08-01T04:30:16;7.28;;;5.10;;
69912;SDS011;57198;52.082;5.108;2022-08-01T04:32:46;5.13;;;4.63;;
69912;SDS011;57198;52.082;5.108;2022-08-01T04:35:15;10.10;;;5.35;;
69912;SDS011;57198;52.082;5.108;2022-08-01T04:38:02;7.50;;;5.33;;
69912;SDS011;57198;52.082;5.108;2022-08-01T04:40:30;10.40;;;5.72;;
69912;SDS011;57198;52.082;5.108;2022-08-01T04:42:58;7.03;;;5.28;;
69912;SDS011;57198;52.082;5.108;2022-08-01T04:45:27;7.93;;;5.18;;
69912;SDS011;57198;52.082;5.108;2022-08-01T04:47:54;6.03;;;5.22;;
69912;SDS011;57198;52.082;5.108;2022-08-01T04:50:24;5.87;;;5.23;;
69912;SDS011;57198;52.082;5.108;2022-08-01T04:52:51;7.95;;;5.90;;
69912;SDS011;57198;52.082;5.108;2022-08-01T04:55:18;8.18;;;5.43;;
69912;SDS011;57198;52.082;5.108;2022-08-01T04:57:47;10.52;;;6.35;;
69912;SDS011;57198;52.082;5.108;2022-08-01T05:00:15;6.97;;;5.68;;
69912;SDS011;57198;52.082;5.108;2022-08-01T05:02:42;8.53;;;5.47;;
69912;SDS011;57198;52.082;5.108;2022-08-01T05:05:10;7.40;;;5.47;;
69912;SDS011;57198;52.082;5.108;2022-08-01T05:07:39;8.00;;;5.43;;
69912;SDS011;57198;52.082;5.108;2022-08-01T05:10:10;6.88;;;4.88;;
69912;SDS011;57198;52.082;5.108;2022-08-01T05:12:38;6.45;;;5.75;;
69912;SDS011;57198;52.082;5.108;2022-08-01T05:15:05;7.37;;;4.70;;
69912;SDS011;57198;52.082;5.108;2022-08-01T05:17:40;8.45;;;5.57;;
69912;SDS011;57198;52.082;5.108;2022-08-01T05:20:11;5.60;;;4.85;;
69912;SDS011;57198;52.082;5.108;2022-08-01T05:22:38;3.63;;;3.30;;
69912;SDS011;57198;52.082;5.108;2022-08-01T05:25:06;2.83;;;2.63;;
69912;SDS011;57198;52.082;5.108;2022-08-01T05:27:34;3.67;;;1.90;;
69912;SDS011;57198;52.082;5.108;2022-08-01T05:30:08;5.15;;;2.15;;
69912;SDS011;57198;52.082;5.108;2022-08-01T05:32:36;4.57;;;1.58;;
69912;SDS011;57198;52.082;5.108;2022-08-01T05:35:04;1.95;;;1.60;;
69912;SDS011;57198;52.082;5.108;2022-08-01T05:37:31;1.50;;;1.40;;
69912;SDS011;57198;52.082;5.108;2022-08-01T05:39:59;1.63;;;1.53;;
69912;SDS011;57198;52.082;5.108;2022-08-01T05:42:26;2.00;;;1.80;;
69912;SDS011;57198;52.082;5.108;2022-08-01T05:44:53;2.47;;;1.50;;
69912;SDS011;57198;52.082;5.108;2022-08-01T05:47:21;2.20;;;1.70;;
69912;SDS011;57198;52.082;5.108;2022-08-01T05:49:48;1.63;;;1.50;;
69912;SDS011;57198;52.082;5.108;2022-08-01T05:52:15;1.97;;;1.77;;
69912;SDS011;57198;52.082;5.108;2022-08-01T05:54:42;2.15;;;1.50;;
69912;SDS011;57198;52.082;5.108;2022-08-01T05:57:10;2.10;;;1.60;;
69912;SDS011;57198;52.082;5.108;2022-08-01T05:59:37;2.05;;;1.85;;
69912;SDS011;57198;52.082;5.108;2022-08-01T06:02:05;2.22;;;1.63;;
69912;SDS011;57198;52.082;5.108;2022-08-01T06:04:32;3.13;;;1.77;;
69912;SDS011;57198;52.082;5.108;2022-08-01T06:07:00;2.80;;;2.00;;
69912;SDS011;57198;52.082;5.108;2022-08-01T06:09:27;1.75;;;1.60;;
69912;SDS011;57198;52.082;5.108;2022-08-01T06:11:56;2.78;;;1.98;;
69912;SDS011;57198;52.082;5.108;2022-08-01T06:14:24;2.88;;;1.80;;
69912;SDS011;57198;52.082;5.108;2022-08-01T06:16:51;3.80;;;2.00;;
69912;SDS011;57198;52.082;5.108;2022-08-01T06:19:18;2.13;;;1.95;;
69912;SDS011;57198;52.082;5.108;2022-08-01T06:21:46;2.38;;;2.10;;
69912;SDS011;57198;52.082;5.108;2022-08-01T06:24:13;2.65;;;2.10;;
69912;SDS011;57198;52.082;5.108;2022-08-01T06:26:40;4.20;;;2.00;;
69912;SDS011;57198;52.082;5.108;2022-08-01T06:29:08;3.57;;;2.43;;
69912;SDS011;57198;52.082;5.108;2022-08-01T06:31:37;3.13;;;2.47;;
69912;SDS011;57198;52.082;5.108;2022-08-01T06:34:04;7.20;;;2.50;;
69912;SDS011;57198;52.082;5.108;2022-08-01T06:36:32;5.68;;;3.00;;
69912;SDS011;57198;52.082;5.108;2022-08-01T06:38:59;6.85;;;2.72;;
69912;SDS011;57198;52.082;5.108;2022-08-01T06:41:26;6.60;;;2.50;;
69912;SDS011;57198;52.082;5.108;2022-08-01T06:43:54;5.38;;;2.55;;
69912;SDS011;57198;52.082;5.108;2022-08-01T06:46:21;7.45;;;2.60;;
69912;SDS011;57198;52.082;5.108;2022-08-01T06:48:55;7.82;;;2.47;;
69912;SDS011;57198;52.082;5.108;2022-08-01T06:51:23;6.03;;;2.60;;
69912;SDS011;57198;52.082;5.108;2022-08-01T06:53:50;5.87;;;2.77;;
69912;SDS011;57198;52.082;5.108;2022-08-01T06:56:17;11.65;;;2.47;;
69912;SDS011;57198;52.082;5.108;2022-08-01T06:58:44;7.70;;;2.47;;
69912;SDS011;57198;52.082;5.108;2022-08-01T07:01:12;9.02;;;2.80;;
69912;SDS011;57198;52.082;5.108;2022-08-01T07:03:40;8.60;;;2.50;;
69912;SDS011;57198;52.082;5.108;2022-08-01T07:06:23;9.27;;;2.77;;
69912;SDS011;57198;52.082;5.108;2022-08-01T07:08:54;10.10;;;2.50;;
69912;SDS011;57198;52.082;5.108;2022-08-01T07:11:22;9.43;;;2.63;;
69912;SDS011;57198;52.082;5.108;2022-08-01T07:13:49;13.10;;;2.97;;
69912;SDS011;57198;52.082;5.108;2022-08-01T07:16:17;9.05;;;2.40;;
69912;SDS011;57198;52.082;5.108;2022-08-01T07:18:44;8.27;;;3.80;;
69912;SDS011;57198;52.082;5.108;2022-08-01T07:21:11;10.52;;;2.92;;
69912;SDS011;57198;52.082;5.108;2022-08-01T07:23:59;8.98;;;3.47;;
69912;SDS011;57198;52.082;5.108;2022-08-01T07:26:26;6.72;;;2.08;;
69912;SDS011;57198;52.082;5.108;2022-08-01T07:28:54;7.47;;;2.30;;
69912;SDS011;57198;52.082;5.108;2022-08-01T07:31:21;6.40;;;2.13;;
69912;SDS011;57198;52.082;5.108;2022-08-01T07:33:50;9.38;;;2.33;;
69912;SDS011;57198;52.082;5.108;2022-08-01T07:36:17;11.98;;;2.47;;
69912;SDS011;57198;52.082;5.108;2022-08-01T07:38:45;8.68;;;2.28;;
69912;SDS011;57198;52.082;5.108;2022-08-01T07:41:13;7.38;;;2.17;;
69912;SDS011;57198;52.082;5.108;2022-08-01T07:43:41;5.87;;;1.77;;
69912;SDS011;57198;52.082;5.108;2022-08-01T07:46:21;12.18;;;1.98;;
69912;SDS011;57198;52.082;5.108;2022-08-01T07:48:49;10.70;;;3.70;;
69912;SDS011;57198;52.082;5.108;2022-08-01T07:51:16;10.10;;;2.35;;
69912;SDS011;57198;52.082;5.108;2022-08-01T07:53:43;5.53;;;1.88;;
69912;SDS011;57198;52.082;5.108;2022-08-01T07:56:11;10.40;;;1.90;;
69912;SDS011;57198;52.082;5.108;2022-08-01T07:58:38;6.40;;;1.85;;
69912;SDS011;57198;52.082;5.108;2022-08-01T08:01:05;7.68;;;1.95;;
69912;SDS011;57198;52.082;5.108;2022-08-01T08:03:33;7.03;;;2.45;;
69912;SDS011;57198;52.082;5.108;2022-08-01T08:06:00;8.27;;;2.42;;
69912;SDS011;57198;52.082;5.108;2022-08-01T08:08:27;7.53;;;1.93;;
69912;SDS011;57198;52.082;5.108;2022-08-01T08:10:55;5.63;;;1.85;;
69912;SDS011;57198;52.082;5.108;2022-08-01T08:13:22;9.40;;;1.73;;
69912;SDS011;57198;52.082;5.108;2022-08-01T08:15:49;7.35;;;1.90;;
69912;SDS011;57198;52.082;5.108;2022-08-01T08:18:17;6.90;;;1.63;;
69912;SDS011;57198;52.082;5.108;2022-08-01T08:20:44;9.53;;;2.27;;
69912;SDS011;57198;52.082;5.108;2022-08-01T08:23:15;7.28;;;2.00;;
69912;SDS011;57198;52.082;5.108;2022-08-01T08:26:09;8.55;;;1.98;;
69912;SDS011;57198;52.082;5.108;2022-08-01T08:28:37;9.07;;;2.33;;
69912;SDS011;57198;52.082;5.108;2022-08-01T08:31:06;5.32;;;1.73;;
69912;SDS011;57198;52.082;5.108;2022-08-01T08:33:54;5.47;;;2.03;;
69912;SDS011;57198;52.082;5.108;2022-08-01T08:36:21;7.03;;;1.73;;
69912;SDS011;57198;52.082;5.108;2022-08-01T08:38:56;6.15;;;1.80;;
69912;SDS011;57198;52.082;5.108;2022-08-01T08:41:25;10.50;;;1.92;;
69912;SDS011;57198;52.082;5.108;2022-08-01T08:44:04;9.98;;;1.73;;
69912;SDS011;57198;52.082;5.108;2022-08-01T08:46:42;10.40;;;2.23;;
69912;SDS011;57198;52.082;5.108;2022-08-01T08:49:10;8.65;;;1.77;;
69912;SDS011;57198;52.082;5.108;2022-08-01T08:51:39;6.75;;;1.50;;
69912;SDS011;57198;52.082;5.108;2022-08-01T08:54:07;5.32;;;1.65;;
69912;SDS011;57198;52.082;5.108;2022-08-01T08:56:35;5.63;;;1.42;;
69912;SDS011;57198;52.082;5.108;2022-08-01T08:59:02;5.63;;;1.30;;
69912;SDS011;57198;52.082;5.108;2022-08-01T09:01:31;6.60;;;1.60;;
69912;SDS011;57198;52.082;5.108;2022-08-01T09:04:02;7.45;;;1.52;;
69912;SDS011;57198;52.082;5.108;2022-08-01T09:06:30;6.22;;;1.40;;
69912;SDS011;57198;52.082;5.108;2022-08-01T09:08:58;7.82;;;1.80;;
69912;SDS011;57198;52.082;5.108;2022-08-01T09:11:25;4.97;;;1.70;;
69912;SDS011;57198;52.082;5.108;2022-08-01T09:16:31;5.63;;;1.60;;
69912;SDS011;57198;52.082;5.108;2022-08-01T09:22:06;5.57;;;1.95;;
69912;SDS011;57198;52.082;5.108;2022-08-01T09:24:35;5.27;;;1.70;;
69912;SDS011;57198;52.082;5.108;2022-08-01T09:27:21;7.45;;;1.80;;
69912;SDS011;57198;52.082;5.108;2022-08-01T09:29:52;7.93;;;1.55;;
69912;SDS011;57198;52.082;5.108;2022-08-01T09:32:27;8.75;;;1.65;;
69912;SDS011;57198;52.082;5.108;2022-08-01T09:35:22;5.38;;;1.55;;
69912;SDS011;57198;52.082;5.108;2022-08-01T09:37:49;9.60;;;1.80;;
69912;SDS011;57198;52.082;5.108;2022-08-01T09:40:16;6.93;;;1.55;;
69912;SDS011;57198;52.082;5.108;2022-08-01T09:42:44;8.73;;;1.60;;
69912;SDS011;57198;52.082;5.108;2022-08-01T09:45:33;5.55;;;1.50;;
69912;SDS011;57198;52.082;5.108;2022-08-01T09:48:09;6.25;;;1.40;;
69912;SDS011;57198;52.082;5.108;2022-08-01T09:50:46;4.40;;;1.50;;
69912;SDS011;57198;52.082;5.108;2022-08-01T09:53:14;5.60;;;1.30;;
69912;SDS011;57198;52.082;5.108;2022-08-01T09:56:00;6.22;;;1.15;;
69912;SDS011;57198;52.082;5.108;2022-08-01T09:58:48;6.15;;;1.45;;
69912;SDS011;57198;52.082;5.108;2022-08-01T10:01:24;8.32;;;1.23;;
69912;SDS011;57198;52.082;5.108;2022-08-01T10:04:14;4.37;;;1.33;;
69912;SDS011;57198;52.082;5.108;2022-08-01T10:06:43;5.88;;;1.60;;
69912;SDS011;57198;52.082;5.108;2022-08-01T10:09:12;4.05;;;0.95;;
69912;SDS011;57198;52.082;5.108;2022-08-01T10:11:40;6.70;;;1.30;;
69912;SDS011;57198;52.082;5.108;2022-08-01T10:14:10;6.15;;;1.55;;
69912;SDS011;57198;52.082;5.108;2022-08-01T10:16:43;6.70;;;1.60;;
69912;SDS011;57198;52.082;5.108;2022-08-01T10:19:18;4.78;;;1.30;;
69912;SDS011;57198;52.082;5.108;2022-08-01T10:21:46;7.22;;;1.98;;
69912;SDS011;57198;52.082;5.108;2022-08-01T10:24:25;7.10;;;1.85;;
69912;SDS011;57198;52.082;5.108;2022-08-01T10:26:58;6.70;;;1.80;;
69912;SDS011;57198;52.082;5.108;2022-08-01T10:32:24;6.78;;;1.50;;
69912;SDS011;57198;52.082;5.108;2022-08-01T10:34:54;4.78;;;1.30;;
69912;SDS011;57198;52.082;5.108;2022-08-01T10:37:22;7.88;;;1.88;;
69912;SDS011;57198;52.082;5.108;2022-08-01T10:39:53;5.82;;;1.27;;
69912;SDS011;57198;52.082;5.108;2022-08-01T10:42:44;7.77;;;1.40;;
69912;SDS011;57198;52.082;5.108;2022-08-01T10:45:12;5.43;;;1.30;;
69912;SDS011;57198;52.082;5.108;2022-08-01T10:47:43;4.40;;;1.35;;
69912;SDS011;57198;52.082;5.108;2022-08-01T10:50:21;5.85;;;1.17;;
69912;SDS011;57198;52.082;5.108;2022-08-01T10:58:21;4.55;;;1.50;;
69912;SDS011;57198;52.082;5.108;2022-08-01T11:03:36;6.00;;;1.67;;
69912;SDS011;57198;52.082;5.108;2022-08-01T11:06:24;6.22;;;1.38;;
69912;SDS011;57198;52.082;5.108;2022-08-01T11:08:53;8.70;;;1.33;;
69912;SDS011;57198;52.082;5.108;2022-08-01T11:11:21;6.68;;;1.42;;
69912;SDS011;57198;52.082;5.108;2022-08-01T11:16:25;6.47;;;1.70;;
69912;SDS011;57198;52.082;5.108;2022-08-01T11:18:53;7.93;;;1.50;;
69912;SDS011;57198;52.082;5.108;2022-08-01T11:21:20;10.03;;;1.50;;
69912;SDS011;57198;52.082;5.108;2022-08-01T11:24:10;6.60;;;1.67;;
69912;SDS011;57198;52.082;5.108;2022-08-01T11:26:38;6.10;;;1.40;;
69912;SDS011;57198;52.082;5.108;2022-08-01T11:29:11;5.70;;;1.52;;
69912;SDS011;57198;52.082;5.108;2022-08-01T11:31:47;7.90;;;1.55;;
69912;SDS011;57198;52.082;5.108;2022-08-01T11:34:15;5.90;;;1.30;;
69912;SDS011;57198;52.082;5.108;2022-08-01T11:36:42;7.72;;;1.45;;
69912;SDS011;57198;52.082;5.108;2022-08-01T11:39:25;8.07;;;1.48;;
69912;SDS011;57198;52.082;5.108;2022-08-01T11:41:52;6.35;;;1.33;;
69912;SDS011;57198;52.082;5.108;2022-08-01T11:44:22;7.05;;;1.38;;
69912;SDS011;57198;52.082;5.108;2022-08-01T11:52:07;6.68;;;1.10;;
69912;SDS011;57198;52.082;5.108;2022-08-01T11:54:39;5.47;;;1.38;;
69912;SDS011;57198;52.082;5.108;2022-08-01T11:57:13;2.67;;;0.70;;
69912;SDS011;57198;52.082;5.108;2022-08-01T11:59:42;5.40;;;0.80;;
69912;SDS011;57198;52.082;5.108;2022-08-01T12:02:37;3.88;;;1.27;;
69912;SDS011;57198;52.082;5.108;2022-08-01T12:05:05;4.20;;;0.85;;
69912;SDS011;57198;52.082;5.108;2022-08-01T12:07:38;3.00;;;0.80;;
69912;SDS011;57198;52.082;5.108;2022-08-01T12:12:33;3.77;;;1.10;;
69912;SDS011;57198;52.082;5.108;2022-08-01T12:15:05;2.42;;;0.93;;
69912;SDS011;57198;52.082;5.108;2022-08-01T12:17:42;2.97;;;0.85;;
69912;SDS011;57198;52.082;5.108;2022-08-01T12:20:28;4.47;;;0.95;;
69912;SDS011;57198;52.082;5.108;2022-08-01T12:22:58;1.73;;;0.65;;
69912;SDS011;57198;52.082;5.108;2022-08-01T12:25:25;2.77;;;1.00;;
69912;SDS011;57198;52.082;5.108;2022-08-01T12:27:52;4.95;;;0.80;;
69912;SDS011;57198;52.082;5.108;2022-08-01T12:30:23;3.00;;;1.00;;
69912;SDS011;57198;52.082;5.108;2022-08-01T12:32:51;2.58;;;1.10;;
69912;SDS011;57198;52.082;5.108;2022-08-01T12:35:20;1.77;;;0.88;;
69912;SDS011;57198;52.082;5.108;2022-08-01T12:37:50;2.07;;;0.83;;
69912;SDS011;57198;52.082;5.108;2022-08-01T12:42:49;1.75;;;0.70;;
69912;SDS011;57198;52.082;5.108;2022-08-01T12:45:21;1.95;;;1.00;;
69912;SDS011;57198;52.082;5.108;2022-08-01T12:47:50;5.13;;;0.70;;
69912;SDS011;57198;52.082;5.108;2022-08-01T12:50:19;1.93;;;0.87;;
69912;SDS011;57198;52.082;5.108;2022-08-01T12:52:47;1.88;;;0.77;;
69912;SDS011;57198;52.082;5.108;2022-08-01T12:57:44;0.93;;;0.70;;
69912;SDS011;57198;52.082;5.108;2022-08-01T13:00:17;2.67;;;0.70;;
69912;SDS011;57198;52.082;5.108;2022-08-01T13:02:45;3.40;;;0.80;;
69912;SDS011;57198;52.082;5.108;2022-08-01T13:05:13;5.13;;;1.08;;
69912;SDS011;57198;52.082;5.108;2022-08-01T13:07:42;3.28;;;0.98;;
69912;SDS011;57198;52.082;5.108;2022-08-01T13:10:11;1.20;;;0.70;;
69912;SDS011;57198;52.082;5.108;2022-08-01T13:12:39;2.15;;;0.93;;
69912;SDS011;57198;52.082;5.108;2022-08-01T13:17:51;3.80;;;0.85;;
69912;SDS011;57198;52.082;5.108;2022-08-01T13:20:25;2.05;;;0.70;;
69912;SDS011;57198;52.082;5.108;2022-08-01T13:22:53;3.22;;;0.80;;
69912;SDS011;57198;52.082;5.108;2022-08-01T13:25:21;1.90;;;0.77;;
69912;SDS011;57198;52.082;5.108;2022-08-01T13:28:13;4.80;;;0.80;;
69912;SDS011;57198;52.082;5.108;2022-08-01T13:30:39;2.08;;;0.60;;
69912;SDS011;57198;52.082;5.108;2022-08-01T13:33:12;2.83;;;0.60;;
69912;SDS011;57198;52.082;5.108;2022-08-01T13:35:42;2.83;;;0.75;;
69912;SDS011;57198;52.082;5.108;2022-08-01T13:38:10;3.10;;;1.02;;
69912;SDS011;57198;52.082;5.108;2022-08-01T13:40:37;2.70;;;0.80;;
69912;SDS011;57198;52.082;5.108;2022-08-01T13:43:04;2.90;;;0.88;;
69912;SDS011;57198;52.082;5.108;2022-08-01T13:45:33;3.38;;;0.77;;
69912;SDS011;57198;52.082;5.108;2022-08-01T13:48:01;1.35;;;0.60;;
69912;SDS011;57198;52.082;5.108;2022-08-01T13:50:43;1.55;;;0.65;;
69912;SDS011;57198;52.082;5.108;2022-08-01T13:53:27;1.40;;;0.60;;
69912;SDS011;57198;52.082;5.108;2022-08-01T13:55:54;3.47;;;0.90;;
69912;SDS011;57198;52.082;5.108;2022-08-01T13:58:22;2.20;;;0.77;;
69912;SDS011;57198;52.082;5.108;2022-08-01T14:00:50;1.92;;;0.60;;
69912;SDS011;57198;52.082;5.108;2022-08-01T14:03:17;1.63;;;0.75;;
69912;SDS011;57198;52.082;5.108;2022-08-01T14:05:44;1.30;;;0.70;;
69912;SDS011;57198;52.082;5.108;2022-08-01T14:08:15;2.25;;;0.80;;
69912;SDS011;57198;52.082;5.108;2022-08-01T14:10:43;2.53;;;0.80;;
69912;SDS011;57198;52.082;5.108;2022-08-01T14:13:10;2.92;;;0.73;;
69912;SDS011;57198;52.082;5.108;2022-08-01T14:15:38;4.50;;;0.80;;
69912;SDS011;57198;52.082;5.108;2022-08-01T14:18:08;3.47;;;0.70;;
69912;SDS011;57198;52.082;5.108;2022-08-01T14:20:36;2.70;;;0.65;;
69912;SDS011;57198;52.082;5.108;2022-08-01T14:23:04;1.60;;;0.63;;
69912;SDS011;57198;52.082;5.108;2022-08-01T14:25:34;4.10;;;0.80;;
69912;SDS011;57198;52.082;5.108;2022-08-01T14:28:22;2.85;;;0.80;;
69912;SDS011;57198;52.082;5.108;2022-08-01T14:30:50;2.57;;;0.70;;
69912;SDS011;57198;52.082;5.108;2022-08-01T14:33:17;1.65;;;0.65;;
69912;SDS011;57198;52.082;5.108;2022-08-01T14:35:45;2.13;;;0.57;;
69912;SDS011;57198;52.082;5.108;2022-08-01T14:38:32;2.33;;;0.90;;
69912;SDS011;57198;52.082;5.108;2022-08-01T14:41:00;3.58;;;1.00;;
69912;SDS011;57198;52.082;5.108;2022-08-01T14:43:29;2.93;;;0.60;;
69912;SDS011;57198;52.082;5.108;2022-08-01T14:45:59;2.78;;;0.80;;
69912;SDS011;57198;52.082;5.108;2022-08-01T14:48:27;1.25;;;0.60;;
69912;SDS011;57198;52.082;5.108;2022-08-01T14:50:55;1.60;;;0.60;;
69912;SDS011;57198;52.082;5.108;2022-08-01T14:53:23;1.65;;;0.63;;
69912;SDS011;57198;52.082;5.108;2022-08-01T14:55:50;1.53;;;0.60;;
69912;SDS011;57198;52.082;5.108;2022-08-01T14:58:18;1.55;;;0.98;;
69912;SDS011;57198;52.082;5.108;2022-08-01T15:00:45;1.50;;;0.75;;
69912;SDS011;57198;52.082;5.108;2022-08-01T15:03:12;4.20;;;1.17;;
69912;SDS011;57198;52.082;5.108;2022-08-01T15:05:40;1.27;;;0.60;;
69912;SDS011;57198;52.082;5.108;2022-08-01T15:08:07;2.33;;;0.80;;
69912;SDS011;57198;52.082;5.108;2022-08-01T15:10:34;3.03;;;1.02;;
69912;SDS011;57198;52.082;5.108;2022-08-01T15:13:02;3.60;;;0.60;;
69912;SDS011;57198;52.082;5.108;2022-08-01T15:15:29;2.50;;;0.80;;
69912;SDS011;57198;52.082;5.108;2022-08-01T15:17:56;2.75;;;0.85;;
69912;SDS011;57198;52.082;5.108;2022-08-01T15:20:24;3.17;;;0.73;;
69912;SDS011;57198;52.082;5.108;2022-08-01T15:22:53;4.22;;;1.17;;
69912;SDS011;57198;52.082;5.108;2022-08-01T15:25:20;3.70;;;0.85;;
69912;SDS011;57198;52.082;5.108;2022-08-01T15:27:48;2.45;;;0.73;;
69912;SDS011;57198;52.082;5.108;2022-08-01T15:30:15;2.28;;;0.90;;
69912;SDS011;57198;52.082;5.108;2022-08-01T15:32:48;2.47;;;0.73;;
69912;SDS011;57198;52.082;5.108;2022-08-01T15:35:16;2.53;;;0.80;;
69912;SDS011;57198;52.082;5.108;2022-08-01T15:37:43;1.40;;;0.70;;
69912;SDS011;57198;52.082;5.108;2022-08-01T15:40:11;2.63;;;0.85;;
69912;SDS011;57198;52.082;5.108;2022-08-01T15:42:38;3.58;;;0.70;;
69912;SDS011;57198;52.082;5.108;2022-08-01T15:45:06;3.33;;;0.80;;
69912;SDS011;57198;52.082;5.108;2022-08-01T15:47:38;0.90;;;0.60;;